Time;durP1;ratioP1;P1;durP2;ratioP2;P2;SDS_P1;SDS_P2;PMS_P1;PMS_P2;Temp;Humidity;BMP_temperature;BMP_pressure;BME280_temperature;BME280_humidity;BME280_pressure;Samples;Min_cycle;Max_cycle;Signal;HPM_P1;HPM_P2
2022/04/03 00:00:24;;;;;;;2.85;2.47;;;;;;;5.77;100.00;62592.38;5041934;28;20206;-78
2022/04/03 00:02:51;;;;;;;2.40;2.20;;;;;;;5.74;100.00;62591.28;5032435;28;20219;-78
2022/04/03 00:05:19;;;;;;;5.85;2.70;;;;;;;5.64;100.00;62581.47;5040973;28;20197;-78
2022/04/03 00:07:46;;;;;;;2.38;2.28;;;;;;;5.55;100.00;62569.69;5052437;28;20303;-80
2022/04/03 00:10:14;;;;;;;7.20;3.03;;;;;;;5.49;100.00;62566.03;5047370;28;20198;-78
2022/04/03 00:12:41;;;;;;;2.50;2.33;;;;;;;5.42;100.00;62555.78;5046671;28;20237;-78
2022/04/03 00:15:09;;;;;;;2.50;2.15;;;;;;;5.43;100.00;62559.88;5033077;28;20207;-78
2022/04/03 00:17:37;;;;;;;2.30;1.95;;;;;;;5.43;100.00;62556.81;5048593;28;20233;-79
2022/04/03 00:20:05;;;;;;;2.67;2.47;;;;;;;5.41;100.00;62557.28;5046946;28;20208;-78
2022/04/03 00:22:32;;;;;;;3.13;2.90;;;;;;;5.34;100.00;62550.06;5044468;28;20285;-78
2022/04/03 00:24:59;;;;;;;3.15;2.95;;;;;;;5.37;100.00;62555.66;5051442;28;20237;-77
2022/04/03 00:27:25;;;;;;;3.20;3.00;;;;;;;5.50;100.00;62564.03;5047308;28;20515;-78
2022/04/03 00:29:52;;;;;;;3.47;3.28;;;;;;;5.48;100.00;62565.00;5045719;28;20252;-80
2022/04/03 00:32:19;;;;;;;4.57;3.70;;;;;;;5.57;100.00;62571.25;5044785;28;20221;-79
2022/04/03 00:34:48;;;;;;;3.35;3.15;;;;;;;5.62;100.00;62574.38;5050197;28;20414;-79
2022/04/03 00:37:15;;;;;;;4.75;4.45;;;;;;;5.62;100.00;62581.44;5051807;28;20234;-79
2022/04/03 00:39:41;;;;;;;3.72;3.25;;;;;;;5.67;100.00;62584.59;5047797;28;20278;-79
2022/04/03 00:42:09;;;;;;;4.30;3.90;;;;;;;5.73;100.00;62593.28;5047963;28;20277;-79
2022/04/03 00:44:37;;;;;;;3.83;3.35;;;;;;;5.78;100.00;62590.84;5053353;28;20218;-79
2022/04/03 00:47:05;;;;;;;3.90;3.58;;;;;;;5.77;100.00;62592.38;5052370;28;20245;-78
2022/04/03 00:49:32;;;;;;;4.07;3.78;;;;;;;5.83;100.00;62603.59;5048803;28;20225;-78
2022/04/03 00:52:00;;;;;;;4.63;3.63;;;;;;;5.86;100.00;62603.66;5052286;28;20222;-78
2022/04/03 00:54:27;;;;;;;6.10;3.95;;;;;;;5.93;100.00;62603.31;5050761;28;20202;-79
2022/04/03 00:56:54;;;;;;;3.63;3.33;;;;;;;5.87;100.00;62604.69;5051697;28;20218;-78
2022/04/03 00:59:22;;;;;;;4.07;3.88;;;;;;;5.85;100.00;62605.16;5044930;28;20197;-79
2022/04/03 01:01:49;;;;;;;4.53;3.88;;;;;;;5.88;100.00;62601.19;5047236;28;20218;-79
2022/04/03 01:04:16;;;;;;;3.70;3.13;;;;;;;5.94;100.00;62604.31;5028049;28;20577;-78
2022/04/03 01:06:43;;;;;;;3.67;3.38;;;;;;;6.12;100.00;62630.47;5035392;28;20201;-78
2022/04/03 01:09:11;;;;;;;3.53;2.90;;;;;;;6.07;100.00;62622.25;5049250;28;20214;-79
2022/04/03 01:11:39;;;;;;;3.42;3.22;;;;;;;6.01;100.00;62619.13;5053497;28;20216;-77
2022/04/03 01:14:06;;;;;;;3.63;2.90;;;;;;;5.98;100.00;62618.56;5053398;28;20208;-78
2022/04/03 01:16:33;;;;;;;3.95;3.55;;;;;;;5.93;100.00;62605.81;5049266;28;20237;-78
2022/04/03 01:19:00;;;;;;;3.55;3.35;;;;;;;5.96;100.00;62611.44;5049380;28;20209;-77
2022/04/03 01:21:27;;;;;;;3.88;3.53;;;;;;;6.06;100.00;62626.81;5044161;28;20507;-78
2022/04/03 01:23:55;;;;;;;3.53;3.22;;;;;;;6.08;100.00;62623.28;5045227;28;20252;-78
2022/04/03 01:26:24;;;;;;;3.47;3.10;;;;;;;6.04;100.00;62617.16;5043273;28;20206;-77
2022/04/03 01:28:51;;;;;;;6.88;3.55;;;;;;;6.08;100.00;62623.28;5044824;28;20217;-76
2022/04/03 01:31:18;;;;;;;3.67;3.38;;;;;;;6.03;100.00;62618.66;5043337;28;20554;-77
2022/04/03 01:33:45;;;;;;;3.78;3.10;;;;;;;6.02;100.00;62615.09;5044941;28;20217;-77
2022/04/03 01:36:12;;;;;;;4.68;3.45;;;;;;;6.01;100.00;62616.06;5043607;28;20399;-77
2022/04/03 01:38:39;;;;;;;5.53;3.95;;;;;;;6.07;100.00;62627.31;5042963;28;20218;-78
2022/04/03 01:41:06;;;;;;;2.33;1.80;;;;;;;5.67;100.00;62584.59;5045223;28;20190;-78
2022/04/03 01:43:34;;;;;;;4.30;1.90;;;;;;;5.48;100.00;62562.47;5043242;28;20221;-76
2022/04/03 01:46:01;;;;;;;3.17;1.65;;;;;;;5.51;100.00;62565.56;5039665;28;20505;-76
2022/04/03 01:48:27;;;;;;;1.80;1.70;;;;;;;5.51;100.00;62567.56;5043998;28;20256;-77
2022/04/03 01:50:54;;;;;;;4.60;1.52;;;;;;;5.50;100.00;62566.56;5043767;28;20501;-77
2022/04/03 01:53:21;;;;;;;1.58;1.48;;;;;;;5.55;100.00;62572.22;5041120;28;20537;-77
2022/04/03 01:55:58;;;;;;;7.03;2.08;;;;;;;5.48;100.00;62561.97;5045311;28;20194;-77
2022/04/03 01:58:25;;;;;;;5.93;2.08;;;;;;;5.45;100.00;62559.38;5025085;28;20210;-77
2022/04/03 02:00:54;;;;;;;3.20;1.85;;;;;;;5.42;100.00;62550.72;5037810;28;20208;-77
2022/04/03 02:03:21;;;;;;;2.20;2.00;;;;;;;5.29;100.00;62540.38;5041782;28;20438;-78
2022/04/03 02:05:48;;;;;;;2.20;1.95;;;;;;;5.34;100.00;62548.06;5043275;28;20229;-76
2022/04/03 02:08:15;;;;;;;8.02;2.88;;;;;;;5.29;100.00;62542.38;5045576;28;20302;-77
2022/04/03 02:10:42;;;;;;;2.30;2.20;;;;;;;5.30;100.00;62543.41;5045912;28;20204;-78
2022/04/03 02:13:09;;;;;;;2.80;2.58;;;;;;;5.32;100.00;62551.03;5044064;28;20465;-77
2022/04/03 02:15:37;;;;;;;2.72;2.45;;;;;;;5.29;100.00;62542.91;5043274;28;20432;-77
2022/04/03 02:18:05;;;;;;;2.55;2.38;;;;;;;5.11;100.00;62526.38;5045631;28;20518;-78
2022/04/03 02:20:32;;;;;;;4.70;2.47;;;;;;;5.13;100.00;62526.44;5046685;28;20201;-78
2022/04/03 02:22:59;;;;;;;2.63;2.42;;;;;;;5.16;100.00;62534.56;5045848;28;20218;-78
2022/04/03 02:25:26;;;;;;;2.83;1.67;;;;;;;5.16;100.00;62531.53;5030030;28;20232;-77
2022/04/03 02:27:54;;;;;;;1.90;1.80;;;;;;;5.20;100.00;62533.13;5045676;28;20230;-78
2022/04/03 02:30:21;;;;;;;2.67;1.27;;;;;;;4.98;100.00;62513.50;5044161;28;20402;-78
2022/04/03 02:32:48;;;;;;;2.47;1.52;;;;;;;4.75;100.00;62484.78;5044952;28;20526;-78
2022/04/03 02:35:16;;;;;;;1.83;1.48;;;;;;;4.56;100.00;62467.75;5045468;28;20202;-78
2022/04/03 02:37:43;;;;;;;1.45;1.33;;;;;;;4.61;100.00;62473.41;5044649;28;20418;-77
2022/04/03 02:40:18;;;;;;;1.85;1.42;;;;;;;4.61;100.00;62472.88;5040960;28;20251;-77
2022/04/03 02:42:45;;;;;;;1.35;1.25;;;;;;;4.65;100.00;62475.00;5043197;28;20230;-77
2022/04/03 02:45:12;;;;;;;1.58;1.30;;;;;;;4.69;100.00;62481.63;5043533;28;20268;-78
2022/04/03 02:47:39;;;;;;;1.45;1.15;;;;;;;4.72;100.00;62486.75;5046496;28;20482;-77
2022/04/03 02:50:07;;;;;;;3.30;1.40;;;;;;;4.77;100.00;62488.84;5047503;28;20217;-78
2022/04/03 02:52:36;;;;;;;1.73;1.58;;;;;;;4.77;100.00;62491.38;5047258;28;20260;-77
2022/04/03 02:55:04;;;;;;;3.10;1.40;;;;;;;4.83;100.00;62500.06;5047627;28;20202;-77
2022/04/03 02:57:31;;;;;;;1.67;1.25;;;;;;;4.79;100.00;62486.38;5043997;28;20224;-77
2022/04/03 02:59:58;;;;;;;2.13;1.48;;;;;;;4.61;100.00;62475.94;5045082;28;20569;-77
2022/04/03 03:02:24;;;;;;;1.67;1.52;;;;;;;4.77;100.00;62489.34;5047604;28;20218;-77
2022/04/03 03:04:51;;;;;;;1.25;0.95;;;;;;;4.86;100.00;62495.59;5046300;28;20287;-76
2022/04/03 03:07:18;;;;;;;2.80;1.52;;;;;;;4.85;100.00;62494.56;5045710;28;20230;-77
2022/04/03 03:09:46;;;;;;;2.35;1.40;;;;;;;4.60;100.00;62471.88;5045430;28;20296;-76
2022/04/03 03:12:13;;;;;;;3.10;1.48;;;;;;;4.70;100.00;62485.19;5047067;28;20272;-77
2022/04/03 03:14:40;;;;;;;4.35;1.20;;;;;;;4.82;100.00;62493.97;5042467;28;20209;-76
2022/04/03 03:17:07;;;;;;;1.23;1.02;;;;;;;4.90;100.00;62505.25;5045777;28;20264;-77
2022/04/03 03:19:33;;;;;;;0.30;0.28;;;;;;;5.09;100.00;62524.81;5047247;28;20201;-76
2022/04/03 03:22:00;;;;;;;0.60;0.60;;;;;;;5.06;100.00;62516.19;5045641;28;20226;-76
2022/04/03 03:24:27;;;;;;;0.65;0.60;;;;;;;5.32;99.46;62546.00;5044996;28;20460;-76
2022/04/03 03:26:55;;;;;;;0.30;0.30;;;;;;;5.29;100.00;62540.38;5044424;28;20210;-76
2022/04/03 03:29:22;;;;;;;0.60;0.43;;;;;;;5.30;100.00;62545.94;5046649;28;20206;-76
2022/04/03 03:31:49;;;;;;;0.63;0.38;;;;;;;5.26;100.00;62539.81;5047174;28;20232;-77
2022/04/03 03:34:16;;;;;;;1.20;0.50;;;;;;;5.24;100.00;62542.28;5042916;28;20198;-77
2022/04/03 03:36:43;;;;;;;1.20;0.50;;;;;;;5.17;100.00;62530.56;5044208;28;20194;-77
2022/04/03 03:39:09;;;;;;;0.30;0.30;;;;;;;4.98;100.00;62508.47;5032047;28;20225;-77
2022/04/03 03:41:37;;;;;;;0.40;0.40;;;;;;;5.06;98.55;62524.25;5027818;28;20262;-77
2022/04/03 03:44:10;;;;;;;0.30;0.30;;;;;;;5.16;96.90;62529.00;5048467;28;20202;-77
2022/04/03 03:46:37;;;;;;;0.25;0.25;;;;;;;5.15;94.08;62530.50;5040471;28;20257;-77
2022/04/03 03:49:04;;;;;;;0.20;0.17;;;;;;;5.18;92.74;62529.06;5053313;28;20198;-77
2022/04/03 03:51:30;;;;;;;2.83;0.43;;;;;;;5.17;93.83;62530.56;5053450;28;20518;-76
2022/04/03 03:53:57;;;;;;;0.20;0.20;;;;;;;5.20;91.79;62533.13;5053840;28;20202;-77
2022/04/03 03:56:24;;;;;;;0.30;0.30;;;;;;;5.27;91.88;62538.31;5046627;28;20194;-76
2022/04/03 03:58:51;;;;;;;0.32;0.20;;;;;;;5.22;90.57;62538.22;5026623;28;20460;-77
2022/04/03 04:01:20;;;;;;;0.30;0.30;;;;;;;5.24;87.65;62537.25;5038712;28;20198;-76
2022/04/03 04:03:47;;;;;;;0.28;0.28;;;;;;;5.34;89.47;62550.06;5045098;28;20284;-76
2022/04/03 04:06:14;;;;;;;0.47;0.40;;;;;;;5.33;90.94;62549.03;5045037;28;20237;-76
2022/04/03 04:08:41;;;;;;;2.10;0.30;;;;;;;5.32;88.92;62551.03;5045749;28;20250;-76
2022/04/03 04:11:08;;;;;;;0.25;0.25;;;;;;;5.47;87.25;62563.97;5045338;28;20213;-76
2022/04/03 04:13:35;;;;;;;2.20;0.38;;;;;;;5.46;83.83;62562.94;5045868;28;20230;-75
2022/04/03 04:16:02;;;;;;;0.70;0.47;;;;;;;5.50;86.38;62564.03;5029495;28;20252;-76
2022/04/03 04:18:31;;;;;;;0.17;0.17;;;;;;;5.60;84.96;62577.38;5044131;28;20241;-77
2022/04/03 04:20:57;;;;;;;0.30;0.30;;;;;;;5.65;84.80;62582.00;5045832;28;20224;-74
2022/04/03 04:23:24;;;;;;;0.43;0.43;;;;;;;5.68;84.60;62585.09;5048197;28;20222;-74
2022/04/03 04:25:51;;;;;;;0.60;0.60;;;;;;;5.60;82.24;62574.31;5045585;28;20230;-74
2022/04/03 04:28:18;;;;;;;0.60;0.60;;;;;;;5.72;84.40;62589.75;5045437;28;20578;-75
2022/04/03 04:30:45;;;;;;;1.63;0.40;;;;;;;5.71;86.30;62591.22;5044684;28;20398;-75
2022/04/03 04:33:12;;;;;;;0.63;0.63;;;;;;;5.78;85.55;62595.41;5043912;28;20218;-74
2022/04/03 04:35:40;;;;;;;0.65;0.65;;;;;;;5.82;84.43;62597.53;5044525;28;20201;-74
2022/04/03 04:38:07;;;;;;;1.88;0.80;;;;;;;5.87;82.05;62607.22;5040066;28;20217;-75
2022/04/03 04:40:34;;;;;;;0.73;0.38;;;;;;;5.89;79.67;62604.22;5045309;28;20198;-74
2022/04/03 04:43:01;;;;;;;0.63;0.63;;;;;;;5.96;80.22;62613.97;5043384;28;20239;-74
2022/04/03 04:45:28;;;;;;;0.50;0.50;;;;;;;5.90;81.83;62610.31;5043234;28;20462;-73
2022/04/03 04:47:59;;;;;;;0.40;0.40;;;;;;;6.00;80.70;62613.03;5045381;28;20217;-74
2022/04/03 04:50:27;;;;;;;0.20;0.20;;;;;;;5.98;81.27;62618.03;5045187;28;20277;-74
2022/04/03 04:52:56;;;;;;;0.35;0.35;;;;;;;6.03;80.46;62623.19;5042261;28;20225;-75
2022/04/03 04:55:23;;;;;;;7.15;5.43;;;;;;;5.92;82.52;62609.84;5042309;28;20241;-75
2022/04/03 04:57:52;;;;;;;0.30;0.30;;;;;;;6.00;82.59;62615.56;5045435;28;20222;-74
2022/04/03 05:00:20;;;;;;;0.30;0.30;;;;;;;5.98;82.84;62610.47;5044373;28;20253;-74
2022/04/03 05:02:47;;;;;;;0.32;0.30;;;;;;;5.94;82.46;62611.41;5032451;28;20218;-74
2022/04/03 05:05:14;;;;;;;0.50;0.38;;;;;;;6.02;82.34;62617.63;5037672;28;20292;-75
2022/04/03 05:07:41;;;;;;;0.10;0.10;;;;;;;6.12;83.02;62627.94;5043570;28;20228;-74
2022/04/03 05:10:11;;;;;;;0.43;0.30;;;;;;;6.22;80.43;62638.25;5044237;28;20182;-74
2022/04/03 05:12:38;;;;;;;0.68;0.40;;;;;;;6.27;79.12;62642.88;5042368;28;20234;-74
2022/04/03 05:15:08;;;;;;;1.20;0.50;;;;;;;6.29;78.15;62644.94;5044360;28;20202;-75
2022/04/03 05:17:35;;;;;;;0.45;0.30;;;;;;;6.23;76.13;62641.78;5045062;28;20426;-75
2022/04/03 05:20:03;;;;;;;0.77;0.40;;;;;;;6.19;78.32;62634.63;5043619;28;20206;-74
2022/04/03 05:22:30;;;;;;;0.45;0.45;;;;;;;6.13;78.43;62631.50;5043862;28;20232;-74
2022/04/03 05:24:57;;;;;;;0.20;0.20;;;;;;;6.09;76.77;62626.84;5045893;28;20233;-75
2022/04/03 05:27:25;;;;;;;1.48;0.40;;;;;;;6.15;77.88;62633.03;5044224;28;20418;-74
2022/04/03 05:29:53;;;;;;;0.98;0.80;;;;;;;6.12;81.13;62627.41;5043536;28;20230;-74
2022/04/03 05:32:26;;;;;;;0.70;0.55;;;;;;;6.02;78.79;62619.63;5043967;28;20262;-73
2022/04/03 05:34:53;;;;;;;0.45;0.40;;;;;;;6.02;77.34;62617.63;5041787;28;20458;-74
2022/04/03 05:37:20;;;;;;;0.45;0.45;;;;;;;6.02;76.57;62620.16;5029530;28;20233;-75
2022/04/03 05:39:48;;;;;;;1.17;0.43;;;;;;;6.00;76.01;62618.09;5044400;28;20553;-74
2022/04/03 05:42:15;;;;;;;4.95;0.30;;;;;;;5.92;71.70;62612.38;5039729;28;20538;-75
2022/04/03 05:44:43;;;;;;;0.98;0.55;;;;;;;6.04;74.97;62622.22;5043089;28;20206;-75
2022/04/03 05:47:10;;;;;;;0.20;0.20;;;;;;;6.10;71.27;62627.88;5044217;28;20218;-75
2022/04/03 05:49:37;;;;;;;0.52;0.40;;;;;;;6.13;69.80;62623.38;5045192;28;20396;-75
2022/04/03 05:52:04;;;;;;;0.50;0.50;;;;;;;6.30;70.18;62643.97;5042782;28;20218;-75
2022/04/03 05:54:31;;;;;;;0.77;0.70;;;;;;;6.51;70.33;62665.09;5029500;28;20202;-75
2022/04/03 05:56:58;;;;;;;0.30;0.30;;;;;;;6.69;70.92;62689.25;5026940;28;20214;-75
2022/04/03 05:59:27;;;;;;;0.30;0.30;;;;;;;6.85;67.19;62702.69;5043525;28;20487;-75
2022/04/03 06:01:55;;;;;;;0.98;0.65;;;;;;;6.87;65.16;62705.28;5036789;28;20334;-75
2022/04/03 06:04:22;;;;;;;0.52;0.50;;;;;;;6.84;62.38;62704.72;5044411;28;20198;-75
2022/04/03 06:06:49;;;;;;;0.50;0.22;;;;;;;6.93;63.38;62713.47;5040735;28;20250;-72
2022/04/03 06:09:15;;;;;;;0.40;0.40;;;;;;;6.91;65.77;62717.00;5033612;28;20498;-75
2022/04/03 06:11:42;;;;;;;0.40;0.40;;;;;;;6.94;65.60;62715.03;5040293;28;20252;-75
2022/04/03 06:14:10;;;;;;;0.50;0.50;;;;;;;6.75;63.45;62687.84;5044789;28;20216;-76
2022/04/03 06:16:37;;;;;;;0.60;0.55;;;;;;;6.64;64.05;62681.03;5043778;28;20198;-74
2022/04/03 06:19:05;;;;;;;0.30;0.30;;;;;;;6.64;64.62;62684.06;5048913;28;20518;-75
2022/04/03 06:21:32;;;;;;;0.43;0.43;;;;;;;6.52;65.96;62673.72;5049521;28;20265;-74
2022/04/03 06:23:59;;;;;;;0.80;0.60;;;;;;;6.46;67.84;62665.50;5049229;28;20248;-73
2022/04/03 06:26:25;;;;;;;0.43;0.40;;;;;;;6.51;68.57;62668.13;5049695;28;20226;-74
2022/04/03 06:28:52;;;;;;;2.72;0.55;;;;;;;6.39;68.46;62660.31;5051908;28;20648;-75
2022/04/03 06:31:19;;;;;;;0.65;0.40;;;;;;;6.45;70.72;62661.44;5052617;28;20241;-75
2022/04/03 06:33:46;;;;;;;1.10;0.63;;;;;;;6.41;69.16;62662.38;5040323;28;20218;-75
2022/04/03 06:36:14;;;;;;;1.48;0.75;;;;;;;6.48;69.62;62665.06;5043580;28;20202;-74
2022/04/03 06:38:41;;;;;;;1.95;0.60;;;;;;;6.51;71.26;62668.13;5042355;28;20373;-75
2022/04/03 06:41:08;;;;;;;0.65;0.28;;;;;;;6.49;69.48;62666.06;5044224;28;20201;-74
2022/04/03 06:43:36;;;;;;;0.77;0.25;;;;;;;6.44;67.26;62663.44;5043066;28;20228;-75
2022/04/03 06:46:05;;;;;;;0.30;0.20;;;;;;;6.41;66.36;62654.78;5044225;28;20226;-77
2022/04/03 06:48:32;;;;;;;1.95;0.50;;;;;;;6.53;67.53;62672.75;5039510;28;20268;-75
2022/04/03 06:51:00;;;;;;;2.35;0.30;;;;;;;6.59;68.71;62678.91;5042693;28;20243;-74
2022/04/03 06:53:28;;;;;;;0.50;0.45;;;;;;;6.60;68.65;62679.97;5033567;28;20225;-75
2022/04/03 06:55:55;;;;;;;0.60;0.60;;;;;;;6.66;68.68;62685.63;5042858;28;20237;-74
2022/04/03 06:58:24;;;;;;;0.50;0.50;;;;;;;6.76;68.70;62696.47;5040414;28;20224;-77
2022/04/03 07:00:51;;;;;;;1.00;0.50;;;;;;;6.73;69.33;62687.78;5043396;28;20270;-78
2022/04/03 07:03:18;;;;;;;0.40;0.40;;;;;;;6.88;68.37;62708.84;5046219;28;20225;-78
2022/04/03 07:05:45;;;;;;;3.45;0.60;;;;;;;6.80;70.07;62700.06;5043322;28;20244;-78
2022/04/03 07:08:12;;;;;;;0.47;0.47;;;;;;;6.87;70.12;62702.22;5043680;28;20375;-78
2022/04/03 07:10:40;;;;;;;0.32;0.28;;;;;;;7.07;67.14;62730.47;5041480;28;20198;-77
2022/04/03 07:13:07;;;;;;;0.22;0.22;;;;;;;7.03;72.43;62721.25;5046245;28;20513;-77
2022/04/03 07:15:34;;;;;;;0.40;0.40;;;;;;;6.99;75.70;62722.19;5046819;28;20258;-77
2022/04/03 07:18:01;;;;;;;1.85;0.40;;;;;;;7.00;75.07;62721.22;5044654;28;20275;-77
2022/04/03 07:20:28;;;;;;;0.90;0.50;;;;;;;7.18;76.05;62741.28;5042439;28;20199;-77
2022/04/03 07:22:55;;;;;;;0.38;0.38;;;;;;;7.33;70.60;62751.69;5044155;28;20226;-77
2022/04/03 07:25:23;;;;;;;1.33;0.28;;;;;;;7.30;69.18;62751.13;5044297;28;20536;-78
2022/04/03 07:27:51;;;;;;;0.38;0.38;;;;;;;7.46;70.21;62770.69;5037218;28;20214;-76
2022/04/03 07:30:18;;;;;;;0.35;0.30;;;;;;;7.52;69.03;62771.31;5024503;28;20219;-77
2022/04/03 07:32:45;;;;;;;0.17;0.17;;;;;;;7.12;74.63;62730.03;5034199;28;20428;-78
2022/04/03 07:35:12;;;;;;;0.47;0.47;;;;;;;7.11;78.29;62726.97;5045621;28;20202;-78
2022/04/03 07:37:39;;;;;;;0.22;0.22;;;;;;;7.03;76.74;62723.78;5046588;28;20245;-78
2022/04/03 07:40:08;;;;;;;0.50;0.38;;;;;;;7.13;79.99;62734.09;5044296;28;20468;-77
2022/04/03 07:42:35;;;;;;;0.93;0.52;;;;;;;7.11;75.41;62729.00;5045336;28;20256;-77
2022/04/03 07:45:05;;;;;;;0.88;0.30;;;;;;;7.01;69.45;62721.72;5049036;28;20207;-74
2022/04/03 07:47:31;;;;;;;0.50;0.50;;;;;;;7.09;69.31;62729.47;5044053;28;20249;-74
2022/04/03 07:49:59;;;;;;;0.40;0.40;;;;;;;7.29;66.42;62750.09;5044694;28;20518;-75
2022/04/03 07:52:26;;;;;;;0.65;0.30;;;;;;;7.50;63.83;62774.31;5043329;28;20580;-75
2022/04/03 07:54:53;;;;;;;0.28;0.20;;;;;;;7.60;61.02;62779.56;5046523;28;20205;-75
2022/04/03 07:57:20;;;;;;;0.10;0.10;;;;;;;7.71;62.48;62791.44;5044498;28;20454;-75
2022/04/03 07:59:47;;;;;;;0.40;0.40;;;;;;;7.90;63.03;62808.50;5043973;28;20514;-74
2022/04/03 08:02:16;;;;;;;0.10;0.10;;;;;;;7.82;62.07;62802.25;5043260;28;20297;-77
2022/04/03 08:04:43;;;;;;;0.20;0.20;;;;;;;7.64;68.24;62783.69;5044973;28;20202;-75
2022/04/03 08:07:10;;;;;;;0.28;0.28;;;;;;;7.79;67.96;62802.22;5045321;28;20291;-74
2022/04/03 08:09:37;;;;;;;0.98;0.43;;;;;;;7.83;66.47;62803.31;5042428;28;20305;-74
2022/04/03 08:12:04;;;;;;;0.25;0.15;;;;;;;7.95;65.36;62818.22;5044555;28;20287;-74
2022/04/03 08:14:31;;;;;;;0.28;0.28;;;;;;;8.32;66.12;62856.47;5045763;28;20210;-74
2022/04/03 08:16:58;;;;;;;0.30;0.30;;;;;;;8.19;59.47;62843.03;5048491;28;20395;-73
2022/04/03 08:19:26;;;;;;;1.08;0.70;;;;;;;8.28;58.49;62854.88;5044703;28;20201;-74
2022/04/03 08:21:53;;;;;;;0.30;0.30;;;;;;;8.54;55.88;62879.19;5043980;28;20241;-73
2022/04/03 08:24:20;;;;;;;0.43;0.43;;;;;;;8.41;55.65;62865.25;5044795;28;20229;-74
2022/04/03 08:26:46;;;;;;;0.43;0.43;;;;;;;8.57;55.84;62879.22;5042901;28;20288;-74
2022/04/03 08:29:13;;;;;;;0.30;0.30;;;;;;;8.63;55.25;62890.53;5045087;28;20438;-74
2022/04/03 08:31:40;;;;;;;0.30;0.30;;;;;;;8.60;54.26;62885.38;5039550;28;20206;-74
2022/04/03 08:34:07;;;;;;;0.17;0.17;;;;;;;8.44;53.56;62868.34;5044462;28;20198;-75
2022/04/03 08:36:35;;;;;;;0.10;0.10;;;;;;;8.59;54.19;62881.31;5041779;28;20233;-74
2022/04/03 08:39:03;;;;;;;0.45;0.45;;;;;;;8.68;54.05;62893.16;5043425;28;20241;-78
2022/04/03 08:41:30;;;;;;;0.68;0.68;;;;;;;8.70;57.84;62890.13;5048887;28;20198;-79
2022/04/03 08:43:57;;;;;;;0.30;0.30;;;;;;;8.59;57.07;62883.84;5049652;28;20217;-79
2022/04/03 08:46:26;;;;;;;0.30;0.30;;;;;;;8.79;58.34;62907.56;5046831;28;20229;-79
2022/04/03 08:48:58;;;;;;;0.50;0.50;;;;;;;9.00;54.39;62923.66;5048439;28;20228;-79
2022/04/03 08:51:28;;;;;;;0.80;0.22;;;;;;;8.89;54.34;62909.75;5049353;28;20261;-79
2022/04/03 08:53:56;;;;;;;0.40;0.40;;;;;;;8.73;60.19;62898.81;5045640;28;20229;-77
2022/04/03 08:56:23;;;;;;;5.05;0.45;;;;;;;8.87;59.67;62910.75;5048189;28;20206;-79
2022/04/03 08:58:50;;;;;;;0.40;0.40;;;;;;;8.89;55.69;62915.34;5048703;28;20218;-80
2022/04/03 09:01:17;;;;;;;0.43;0.40;;;;;;;8.86;55.99;62914.78;5049860;28;20194;-78
2022/04/03 09:03:44;;;;;;;0.30;0.28;;;;;;;8.88;53.42;62908.72;5044022;28;20230;-77
2022/04/03 09:06:16;;;;;;;0.43;0.40;;;;;;;9.14;52.24;62940.69;5048674;28;20304;-78
2022/04/03 09:08:43;;;;;;;0.55;0.55;;;;;;;9.59;52.30;62987.22;5050467;28;20293;-78
2022/04/03 09:11:12;;;;;;;0.60;0.47;;;;;;;9.25;51.35;62949.50;5048448;28;20221;-78
2022/04/03 09:13:40;;;;;;;0.80;0.70;;;;;;;9.17;50.29;62946.31;5038809;28;20230;-77
2022/04/03 09:16:08;;;;;;;3.60;0.50;;;;;;;9.16;49.53;62945.78;5030716;28;20244;-78
2022/04/03 09:18:45;;;;;;;0.30;0.30;;;;;;;9.06;50.33;62932.91;5049479;28;20221;-78
2022/04/03 09:21:17;;;;;;;1.02;0.45;;;;;;;9.27;50.40;62954.63;5046554;28;20268;-77
2022/04/03 09:24:04;;;;;;;1.35;0.57;;;;;;;9.41;49.55;62971.13;5046188;28;20440;-79
2022/04/03 09:26:33;;;;;;;0.32;0.20;;;;;;;9.40;46.79;62964.50;5042735;28;20222;-79
2022/04/03 09:29:12;;;;;;;0.50;0.35;;;;;;;9.68;47.55;62999.03;5049657;28;20209;-78
2022/04/03 09:31:40;;;;;;;0.20;0.20;;;;;;;9.93;46.62;63022.38;5035482;28;20364;-79
2022/04/03 09:34:08;;;;;;;0.47;0.47;;;;;;;10.16;47.19;63046.16;5046758;28;20206;-77
2022/04/03 09:36:37;;;;;;;0.80;0.52;;;;;;;10.33;47.63;63063.25;5046115;28;20398;-78
2022/04/03 09:39:09;;;;;;;0.50;0.50;;;;;;;10.35;44.24;63065.84;5046874;28;20207;-78
2022/04/03 09:41:55;;;;;;;0.47;0.30;;;;;;;10.32;42.64;63060.19;5047532;28;20220;-77
2022/04/03 09:44:26;;;;;;;1.50;0.30;;;;;;;10.31;41.99;63061.72;5048268;28;20255;-78
2022/04/03 09:47:17;;;;;;;0.50;0.50;;;;;;;10.57;42.35;63083.00;5048994;28;20242;-77
2022/04/03 09:49:46;;;;;;;0.85;0.85;;;;;;;10.86;43.84;63115.56;5039442;28;20241;-73
2022/04/03 09:52:12;;;;;;;0.63;0.47;;;;;;;10.85;44.58;63114.00;5040588;28;20592;-75
2022/04/03 09:54:41;;;;;;;0.55;0.50;;;;;;;10.69;45.88;63097.44;5037377;28;20382;-74
2022/04/03 09:57:26;;;;;;;0.25;0.25;;;;;;;10.66;45.73;63094.34;5040835;28;20259;-75
2022/04/03 09:59:54;;;;;;;0.77;0.50;;;;;;;10.90;45.89;63119.19;5036335;28;20511;-75
2022/04/03 10:02:22;;;;;;;0.20;0.20;;;;;;;11.10;44.67;63139.88;5040590;28;20340;-75
2022/04/03 10:04:50;;;;;;;0.25;0.25;;;;;;;11.30;44.56;63165.72;5043164;28;20495;-76
2022/04/03 10:07:18;;;;;;;0.20;0.20;;;;;;;11.58;41.64;63192.66;5041449;28;20237;-77
2022/04/03 10:09:47;;;;;;;0.20;0.20;;;;;;;11.89;43.41;63221.75;5041483;28;20529;-76
2022/04/03 10:12:18;;;;;;;0.30;0.30;;;;;;;12.02;41.67;63234.69;5039712;28;20264;-75
2022/04/03 10:14:47;;;;;;;0.32;0.32;;;;;;;11.99;42.07;63234.66;5041194;28;20198;-75
2022/04/03 10:17:14;;;;;;;0.28;0.28;;;;;;;11.61;43.21;63192.72;5042212;28;20234;-74
2022/04/03 10:19:41;;;;;;;0.50;0.50;;;;;;;11.68;44.47;63202.53;5042180;28;20250;-74
2022/04/03 10:22:13;;;;;;;0.40;0.40;;;;;;;11.73;43.62;63207.72;5039945;28;20226;-74
2022/04/03 10:24:42;;;;;;;0.40;0.40;;;;;;;11.66;44.94;63200.47;5040604;28;20212;-73
2022/04/03 10:27:16;;;;;;;0.57;0.40;;;;;;;11.77;43.93;63216.44;5039925;28;20268;-74
2022/04/03 10:29:44;;;;;;;0.45;0.45;;;;;;;11.84;44.32;63218.59;5037090;28;20245;-74
2022/04/03 10:32:25;;;;;;;0.70;0.43;;;;;;;11.95;42.57;63227.97;5039889;28;20213;-73
2022/04/03 10:34:55;;;;;;;1.05;0.30;;;;;;;11.30;42.56;63161.13;5040546;28;20253;-74
2022/04/03 10:37:27;;;;;;;0.93;0.93;;;;;;;10.91;47.71;63123.28;5027282;28;20215;-76
2022/04/03 10:39:56;;;;;;;0.50;0.50;;;;;;;9.91;50.92;63015.22;5030930;28;20423;-75
2022/04/03 10:42:28;;;;;;;0.30;0.30;;;;;;;9.93;49.48;63024.91;5040939;28;20225;-76
2022/04/03 10:45:20;;;;;;;0.80;0.80;;;;;;;9.69;52.50;62995.00;5044383;28;20236;-75
2022/04/03 10:47:51;;;;;;;1.10;0.98;;;;;;;9.83;52.15;63011.50;5043452;28;20234;-76
2022/04/03 10:50:19;;;;;;;1.08;1.08;;;;;;;9.94;53.17;63025.94;5042041;28;20202;-74
2022/04/03 10:53:03;;;;;;;0.77;0.73;;;;;;;10.30;51.70;63060.16;5041264;28;20222;-74
2022/04/03 10:55:36;;;;;;;0.93;0.65;;;;;;;10.55;49.97;63082.94;5043048;28;20197;-75
2022/04/03 10:58:06;;;;;;;0.22;0.22;;;;;;;10.77;43.31;63105.75;5042826;28;20221;-75
2022/04/03 11:00:38;;;;;;;1.58;0.95;;;;;;;10.83;47.50;63115.00;5039111;28;20238;-75
2022/04/03 11:03:37;;;;;;;1.75;1.20;;;;;;;10.44;50.99;63074.63;5042565;28;20281;-75
2022/04/03 11:06:22;;;;;;;1.00;1.00;;;;;;;9.86;56.68;63009.53;5041446;28;20198;-75
2022/04/03 11:09:06;;;;;;;1.33;1.30;;;;;;;9.21;58.35;62945.38;5044998;28;20260;-76
2022/04/03 11:11:37;;;;;;;1.40;1.30;;;;;;;9.07;63.39;62935.97;5046985;28;20210;-75
2022/04/03 11:14:07;;;;;;;1.02;1.00;;;;;;;9.09;61.87;62935.50;5047865;28;20401;-75
2022/04/03 11:16:55;;;;;;;1.75;1.05;;;;;;;8.79;66.95;62899.94;5045480;28;20209;-76
2022/04/03 11:19:40;;;;;;;1.55;1.40;;;;;;;8.44;73.77;62873.94;5045742;28;20201;-75
2022/04/03 11:22:09;;;;;;;1.02;1.02;;;;;;;8.22;72.93;62843.56;5046959;28;20222;-74
2022/04/03 11:24:38;;;;;;;1.80;0.85;;;;;;;7.90;71.10;62813.56;5044298;28;20198;-75
2022/04/03 11:27:06;;;;;;;1.27;1.23;;;;;;;7.82;77.51;62805.31;5046003;28;20452;-74
2022/04/03 11:29:33;;;;;;;2.53;2.03;;;;;;;7.69;79.27;62791.38;5048375;28;20218;-75
2022/04/03 11:32:04;;;;;;;1.55;1.45;;;;;;;7.78;82.74;62801.19;5049071;28;20249;-75
2022/04/03 11:34:32;;;;;;;1.70;1.48;;;;;;;7.87;79.56;62807.94;5051432;28;20194;-76
2022/04/03 11:37:02;;;;;;;1.75;1.65;;;;;;;7.93;80.17;62811.63;5054010;28;20226;-75
2022/04/03 11:39:34;;;;;;;3.65;3.35;;;;;;;7.75;85.05;62795.03;5055841;28;20201;-74
2022/04/03 11:42:06;;;;;;;2.33;2.13;;;;;;;7.70;90.72;62789.88;5057355;28;20222;-73
2022/04/03 11:44:35;;;;;;;2.40;1.70;;;;;;;7.71;95.34;62790.91;5055241;28;20206;-73